Time;durP1;ratioP1;P1;durP2;ratioP2;P2;SDS_P1;SDS_P2;PMS_P1;PMS_P2;Temp;Humidity;BMP_temperature;BMP_pressure;BME280_temperature;BME280_humidity;BME280_pressure;Samples;Min_cycle;Max_cycle;Signal;HPM_P1;HPM_P2
2022/10/31 00:02:11;;;;;;;14.65;7.40;;;;;;;14.77;55.32;100987.34;10504959;28;20495;-82
2022/10/31 00:07:33;;;;;;;15.18;7.72;;;;;;;14.24;56.89;100993.78;10504287;28;20692;-82
2022/10/31 00:12:55;;;;;;;15.07;7.18;;;;;;;14.36;56.48;100985.34;10523779;28;20219;-82
2022/10/31 00:18:17;;;;;;;12.27;7.45;;;;;;;14.23;57.16;100989.28;10504451;28;20187;-82
2022/10/31 00:23:39;;;;;;;22.02;7.70;;;;;;;14.39;57.05;100990.31;10504951;28;20228;-83
2022/10/31 00:29:02;;;;;;;14.98;7.75;;;;;;;14.44;56.67;100995.81;10503785;28;20210;-83
2022/10/31 00:34:24;;;;;;;16.45;8.75;;;;;;;14.60;56.29;100996.81;10489361;28;20272;-82
2022/10/31 00:39:48;;;;;;;14.68;7.97;;;;;;;14.98;55.35;100996.66;10503150;28;20187;-82
2022/10/31 00:45:11;;;;;;;17.13;7.60;;;;;;;14.49;56.17;100995.56;10503242;28;20198;-82
2022/10/31 00:50:33;;;;;;;9.90;5.75;;;;;;;13.97;57.56;100993.09;10503616;28;20472;-83
2022/10/31 00:55:55;;;;;;;10.27;5.55;;;;;;;14.10;56.90;100983.53;10502256;28;20219;-82
2022/10/31 01:01:17;;;;;;;11.23;6.25;;;;;;;14.35;57.21;100995.03;10487508;28;20250;-83
2022/10/31 01:06:39;;;;;;;8.82;5.38;;;;;;;14.16;56.49;101003.19;10486835;28;20227;-82
2022/10/31 01:12:01;;;;;;;11.23;5.85;;;;;;;14.52;55.86;101006.25;10488079;28;20642;-83
2022/10/31 01:17:24;;;;;;;8.82;5.75;;;;;;;14.28;57.01;101000.44;10501450;28;20199;-83
2022/10/31 01:22:46;;;;;;;13.05;6.93;;;;;;;14.45;56.21;100995.47;10501508;28;20248;-82
2022/10/31 01:28:08;;;;;;;8.43;6.50;;;;;;;14.70;54.96;100999.25;10502110;28;20676;-82
2022/10/31 01:33:24;;;;;;;15.15;7.20;;;;;;;14.77;55.35;100984.50;10500734;28;20275;-81
2022/10/31 01:38:47;;;;;;;10.45;6.47;;;;;;;14.61;56.48;100992.81;10500667;28;20264;-82
2022/10/31 01:44:13;;;;;;;13.82;6.57;;;;;;;14.71;56.23;101002.91;10486157;28;20479;-82
2022/10/31 01:49:46;;;;;;;16.00;6.72;;;;;;;14.24;57.58;101017.28;10501834;28;20187;-83
2022/10/31 01:55:28;;;;;;;16.90;8.00;;;;;;;14.23;57.86;101031.81;10486280;28;20215;-82
2022/10/31 02:00:54;;;;;;;12.73;7.53;;;;;;;14.61;56.69;101032.53;10519849;28;20202;-82
2022/10/31 02:06:27;;;;;;;17.30;9.27;;;;;;;14.31;57.39;101002.59;10486372;28;20237;-82
2022/10/31 02:11:52;;;;;;;14.43;8.75;;;;;;;14.90;55.43;100983.38;10500119;28;20207;-83
2022/10/31 02:17:14;;;;;;;18.90;8.32;;;;;;;14.54;56.46;100981.19;10519227;28;20195;-83
2022/10/31 02:23:14;;;;;;;18.50;8.40;;;;;;;14.23;57.70;100980.78;10472075;28;20245;-83
2022/10/31 02:29:09;;;;;;;14.05;7.85;;;;;;;14.12;58.16;100959.69;10452102;28;20224;-83
2022/10/31 02:34:48;;;;;;;15.38;7.20;;;;;;;13.93;58.33;100968.63;10458106;28;20273;-82
2022/10/31 02:40:17;;;;;;;14.85;7.13;;;;;;;13.43;60.36;100971.38;10430700;28;20204;-82
2022/10/31 02:46:16;;;;;;;13.95;7.20;;;;;;;13.34;59.49;100977.91;10446760;28;20612;-82
2022/10/31 02:51:40;;;;;;;15.80;6.70;;;;;;;13.52;59.13;100992.84;10457947;28;20200;-81
2022/10/31 02:57:06;;;;;;;12.63;7.78;;;;;;;13.50;59.60;100980.19;10457872;28;20180;-83
2022/10/31 03:02:52;;;;;;;15.20;7.45;;;;;;;13.45;59.06;100977.53;10443619;28;20480;-82
2022/10/31 03:08:24;;;;;;;13.02;7.38;;;;;;;13.19;60.03;100994.63;10465229;28;20192;-83
2022/10/31 03:13:55;;;;;;;14.63;7.57;;;;;;;13.12;60.62;100999.94;10464948;28;20211;-82
2022/10/31 03:19:26;;;;;;;13.20;8.25;;;;;;;13.01;60.84;101010.78;10414430;28;20250;-83
2022/10/31 03:24:50;;;;;;;15.13;8.27;;;;;;;12.93;60.40;101017.28;10422849;28;20196;-82
2022/10/31 03:30:13;;;;;;;17.20;8.48;;;;;;;13.17;59.96;101006.22;10422076;28;20200;-82
2022/10/31 03:35:36;;;;;;;15.57;7.90;;;;;;;12.74;60.91;101003.50;10456909;28;20233;-83
2022/10/31 03:41:01;;;;;;;14.80;8.25;;;;;;;13.09;60.21;101004.28;10448171;28;20253;-82
2022/10/31 03:46:23;;;;;;;12.23;8.00;;;;;;;12.46;62.28;101002.19;10462547;28;20322;-81
2022/10/31 03:51:56;;;;;;;15.40;8.17;;;;;;;12.85;60.96;101009.66;10481199;28;20200;-82
2022/10/31 03:57:31;;;;;;;12.98;8.13;;;;;;;12.47;61.79;100999.03;10449253;28;20677;-81
2022/10/31 04:03:00;;;;;;;11.30;7.88;;;;;;;12.49;62.22;101010.84;10448474;28;20478;-81
2022/10/31 04:08:27;;;;;;;15.13;8.37;;;;;;;12.88;60.87;100992.84;10462312;28;20252;-82
2022/10/31 04:13:52;;;;;;;13.90;8.10;;;;;;;12.24;63.48;100989.00;10452595;28;20301;-82
2022/10/31 04:19:14;;;;;;;18.45;8.65;;;;;;;12.53;62.72;100992.03;10470086;28;20248;-82
2022/10/31 04:24:38;;;;;;;12.00;8.37;;;;;;;12.09;64.21;100981.00;10472039;28;20233;-80
2022/10/31 04:30:01;;;;;;;16.17;8.30;;;;;;;12.51;62.23;100985.88;10489171;28;20500;-82
2022/10/31 04:35:23;;;;;;;13.48;8.77;;;;;;;12.76;60.64;100997.53;10502712;28;20245;-83
2022/10/31 04:40:45;;;;;;;20.20;9.07;;;;;;;12.17;63.38;100983.00;10502880;28;20229;-81
2022/10/31 04:46:22;;;;;;;19.67;8.98;;;;;;;12.46;61.40;100979.56;10464909;28;20496;-82
2022/10/31 04:51:45;;;;;;;19.58;8.90;;;;;;;12.61;60.52;100988.38;10460046;28;20204;-82
2022/10/31 04:57:07;;;;;;;15.95;8.88;;;;;;;12.97;59.44;100984.31;10447224;28;20204;-83
2022/10/31 05:02:30;;;;;;;14.17;9.20;;;;;;;12.97;59.76;100979.50;10461288;28;20480;-82
2022/10/31 05:07:52;;;;;;;16.17;10.05;;;;;;;12.36;61.28;100972.25;10460736;28;20219;-83
2022/10/31 05:13:15;;;;;;;18.35;8.88;;;;;;;12.40;61.26;100958.25;10446825;28;20265;-83
2022/10/31 05:18:39;;;;;;;15.35;8.48;;;;;;;11.91;62.96;100966.84;10463346;28;20242;-82
2022/10/31 05:24:30;;;;;;;16.35;9.10;;;;;;;12.47;60.83;100959.44;10461257;28;20249;-82
2022/10/31 05:29:52;;;;;;;14.88;8.18;;;;;;;12.03;61.74;100971.00;10445380;28;20195;-83
2022/10/31 05:34:59;;;;;;;15.07;8.13;;;;;;;11.87;62.55;100963.00;10477493;28;20215;-83
2022/10/31 05:40:54;;;;;;;19.38;9.60;;;;;;;11.97;62.09;100956.22;10463216;28;20219;-83
2022/10/31 05:46:20;;;;;;;18.55;8.60;;;;;;;12.09;61.00;100952.75;10459367;28;20196;-83
2022/10/31 05:51:44;;;;;;;11.98;8.23;;;;;;;12.11;61.02;100961.72;10446961;28;20230;-82
2022/10/31 05:57:20;;;;;;;16.13;8.88;;;;;;;11.62;62.77;100955.31;10447322;28;20239;-83
2022/10/31 06:02:43;;;;;;;13.50;8.25;;;;;;;11.73;62.44;100947.38;10472673;28;20262;-82
2022/10/31 06:08:23;;;;;;;13.80;7.93;;;;;;;11.59;63.47;100953.16;10485139;28;20270;-82
2022/10/31 06:13:49;;;;;;;15.68;8.73;;;;;;;12.14;61.10;100955.41;10444915;28;20281;-82
2022/10/31 06:19:26;;;;;;;14.95;8.98;;;;;;;12.04;61.34;100941.59;10446249;28;20200;-82
2022/10/31 06:24:54;;;;;;;22.23;8.05;;;;;;;12.05;61.62;100958.22;10446010;28;20245;-83
2022/10/31 06:30:20;;;;;;;15.63;8.65;;;;;;;12.12;61.05;100940.78;10446780;28;20199;-81
2022/10/31 06:35:46;;;;;;;13.88;8.45;;;;;;;11.98;61.71;100946.59;10474462;28;20219;-80
2022/10/31 06:41:08;;;;;;;16.08;8.93;;;;;;;12.22;61.13;100954.59;10448845;28;20229;-80
2022/10/31 06:46:31;;;;;;;19.25;8.50;;;;;;;12.26;61.32;100952.75;10482213;28;20261;-80
2022/10/31 06:52:25;;;;;;;17.40;8.93;;;;;;;12.27;61.01;100965.72;10452672;28;20226;-80
2022/10/31 06:57:51;;;;;;;21.98;9.05;;;;;;;12.35;60.48;100959.25;10471486;28;20195;-81
2022/10/31 07:03:16;;;;;;;14.90;7.90;;;;;;;12.26;60.83;100964.88;10451975;28;20192;-80
2022/10/31 07:08:39;;;;;;;14.03;8.30;;;;;;;12.40;60.68;100970.41;10492550;28;20199;-81
2022/10/31 07:14:01;;;;;;;14.18;8.32;;;;;;;11.88;62.93;100963.84;10465206;28;20567;-80
2022/10/31 07:19:23;;;;;;;13.15;9.13;;;;;;;12.50;60.67;100967.25;10465305;28;20541;-81
2022/10/31 07:24:47;;;;;;;14.57;9.00;;;;;;;12.70;60.04;100979.88;10463007;28;20488;-81
2022/10/31 07:30:33;;;;;;;18.20;9.32;;;;;;;12.61;59.94;100979.06;10458666;28;20221;-80
2022/10/31 07:35:56;;;;;;;15.70;8.60;;;;;;;12.88;58.83;100969.38;10444454;28;20220;-81
2022/10/31 07:41:21;;;;;;;20.13;9.80;;;;;;;12.77;59.22;100966.06;10448613;28;20238;-80
2022/10/31 07:46:44;;;;;;;14.90;8.90;;;;;;;12.86;59.51;100972.53;10465005;28;20269;-80
2022/10/31 07:52:25;;;;;;;15.02;8.93;;;;;;;12.98;58.78;100977.50;10446141;28;20542;-81
2022/10/31 07:58:07;;;;;;;20.38;10.38;;;;;;;13.10;59.09;100976.81;10474615;28;20241;-81
2022/10/31 08:03:33;;;;;;;17.08;11.18;;;;;;;12.90;59.77;100972.69;10476290;28;20241;-81
2022/10/31 08:09:14;;;;;;;14.93;10.30;;;;;;;13.10;59.50;100971.13;10459327;28;20662;-81
2022/10/31 08:14:41;;;;;;;19.73;10.70;;;;;;;13.20;59.42;100956.66;10489015;28;20273;-81
2022/10/31 08:20:05;;;;;;;17.92;11.02;;;;;;;13.14;60.32;100969.31;10462450;28;20204;-81
2022/10/31 08:25:29;;;;;;;17.30;10.68;;;;;;;13.19;59.11;100972.81;10458166;28;20265;-82
2022/10/31 08:30:51;;;;;;;21.58;11.00;;;;;;;13.52;57.83;100961.69;10460149;28;20555;-82
2022/10/31 08:36:14;;;;;;;18.17;11.55;;;;;;;13.24;58.63;100966.97;10461142;28;20251;-81
2022/10/31 08:41:43;;;;;;;20.70;11.55;;;;;;;13.72;56.86;100963.72;10489276;28;20268;-82
2022/10/31 08:47:06;;;;;;;16.60;11.18;;;;;;;13.65;56.46;100962.63;10458670;28;20497;-82
2022/10/31 08:52:28;;;;;;;20.75;10.85;;;;;;;13.50;56.71;100960.38;10446852;28;20681;-83
2022/10/31 08:57:56;;;;;;;20.67;10.07;;;;;;;13.92;55.71;100947.97;10459348;28;20274;-82
2022/10/31 09:03:25;;;;;;;20.33;10.70;;;;;;;13.33;56.89;100961.25;10472062;28;20250;-82
2022/10/31 09:08:47;;;;;;;20.48;12.18;;;;;;;13.76;56.69;100949.72;10447240;28;20497;-81
2022/10/31 09:14:09;;;;;;;20.30;11.52;;;;;;;14.27;56.08;100947.72;10457055;28;20220;-82
2022/10/31 09:20:08;;;;;;;25.00;12.57;;;;;;;14.67;54.24;100943.19;10437442;28;20256;-81
2022/10/31 09:25:33;;;;;;;20.58;11.73;;;;;;;14.31;55.85;100937.34;10460096;28;20265;-82
2022/10/31 09:31:12;;;;;;;22.65;12.10;;;;;;;14.24;56.04;100928.56;10460126;28;20196;-81
2022/10/31 09:36:42;;;;;;;20.38;11.30;;;;;;;14.38;56.01;100917.75;10459187;28;20208;-81
2022/10/31 09:42:24;;;;;;;23.95;12.63;;;;;;;14.61;54.99;100916.19;10464735;28;20260;-81
2022/10/31 09:47:58;;;;;;;21.65;11.45;;;;;;;14.56;55.41;100904.25;10466524;28;20200;-82
2022/10/31 09:53:51;;;;;;;25.10;11.85;;;;;;;14.73;54.99;100904.88;10458872;28;20215;-81
2022/10/31 09:59:26;;;;;;;26.98;12.35;;;;;;;14.87;54.86;100898.09;10442174;28;20250;-81
2022/10/31 10:05:04;;;;;;;25.50;12.68;;;;;;;14.97;54.66;100903.34;10437581;28;20219;-82
2022/10/31 10:10:42;;;;;;;26.92;13.32;;;;;;;15.18;54.14;100884.19;10444155;28;20207;-82
2022/10/31 10:16:59;;;;;;;20.27;11.85;;;;;;;15.14;54.08;100886.91;10476947;28;20512;-82
2022/10/31 10:22:35;;;;;;;25.80;12.82;;;;;;;15.12;53.98;100891.28;10462172;28;20515;-83
2022/10/31 10:28:16;;;;;;;27.42;13.27;;;;;;;14.84;54.67;100893.97;10459386;28;20482;-82
2022/10/31 10:34:08;;;;;;;22.30;12.95;;;;;;;15.17;54.34;100883.38;10458183;28;20223;-81
2022/10/31 10:39:43;;;;;;;27.05;12.95;;;;;;;15.15;53.43;100865.03;10456610;28;20245;-83
2022/10/31 10:51:00;;;;;;;23.50;11.75;;;;;;;15.16;53.11;100849.66;10466749;28;20199;-83
2022/10/31 10:56:45;;;;;;;24.27;11.27;;;;;;;15.99;50.75;100839.75;10469349;28;20218;-82
2022/10/31 11:02:37;;;;;;;17.55;10.43;;;;;;;15.94;50.57;100831.44;10465166;28;20261;-83
2022/10/31 11:07:59;;;;;;;15.60;9.80;;;;;;;16.23;50.27;100828.28;10452017;28;20281;-83
2022/10/31 11:13:23;;;;;;;15.32;8.98;;;;;;;16.36;49.18;100812.81;10457842;28;20188;-82
2022/10/31 11:18:46;;;;;;;17.55;9.38;;;;;;;16.26;49.32;100795.47;10462478;28;20473;-82
2022/10/31 11:24:08;;;;;;;19.35;8.95;;;;;;;16.03;49.69;100787.47;10453947;28;20254;-82
2022/10/31 11:29:30;;;;;;;18.27;9.10;;;;;;;16.49;48.61;100770.91;10459950;28;20245;-82
2022/10/31 11:34:56;;;;;;;16.13;8.57;;;;;;;16.51;48.36;100759.97;10459899;28;20277;-82
2022/10/31 11:40:21;;;;;;;17.20;9.10;;;;;;;17.29;47.29;100736.34;10461542;28;20199;-82
2022/10/31 11:45:43;;;;;;;18.23;9.25;;;;;;;16.30;48.77;100728.09;10458192;28;20192;-82
2022/10/31 11:51:05;;;;;;;17.20;8.85;;;;;;;17.10;47.40;100702.09;10450062;28;20265;-82
2022/10/31 11:56:37;;;;;;;13.32;8.13;;;;;;;17.50;46.04;100699.75;10442826;28;20489;-82
2022/10/31 12:02:01;;;;;;;18.08;8.23;;;;;;;17.33;47.06;100714.41;10491779;28;20584;-82
2022/10/31 12:07:23;;;;;;;16.42;8.32;;;;;;;17.39;47.41;100712.13;10463334;28;20212;-82
2022/10/31 12:12:51;;;;;;;17.65;8.70;;;;;;;17.01;47.56;100707.19;10489422;28;20196;-82
2022/10/31 12:18:29;;;;;;;17.50;8.48;;;;;;;16.93;47.93;100695.59;10462884;28;20278;-83
2022/10/31 12:24:00;;;;;;;17.48;7.57;;;;;;;17.51;47.22;100680.63;10463581;28;20195;-83
2022/10/31 12:29:41;;;;;;;15.50;7.55;;;;;;;17.57;46.61;100677.13;10460602;28;20224;-83
2022/10/31 12:35:27;;;;;;;15.63;7.53;;;;;;;17.86;46.43;100663.44;10447997;28;20223;-82
2022/10/31 12:41:00;;;;;;;16.73;7.50;;;;;;;17.60;46.36;100656.38;10462885;28;20188;-82
2022/10/31 12:46:51;;;;;;;13.57;6.60;;;;;;;17.74;47.90;100640.81;10462026;28;20218;-83
2022/10/31 12:52:26;;;;;;;16.75;7.32;;;;;;;17.51;47.43;100624.47;10458351;28;20195;-82
2022/10/31 12:57:52;;;;;;;17.52;7.22;;;;;;;17.83;46.42;100630.84;10456766;28;20269;-82
2022/10/31 13:03:25;;;;;;;13.95;6.60;;;;;;;17.93;45.68;100612.25;10478267;28;20473;-82
2022/10/31 13:08:56;;;;;;;13.65;6.22;;;;;;;17.74;46.11;100600.91;10461087;28;20212;-82
2022/10/31 13:14:26;;;;;;;10.63;5.78;;;;;;;17.70;46.86;100585.75;10459137;28;20211;-83
2022/10/31 13:19:49;;;;;;;15.63;6.43;;;;;;;17.24;47.06;100575.06;10452838;28;20191;-82
2022/10/31 13:25:18;;;;;;;13.95;6.30;;;;;;;17.91;46.01;100567.00;10429940;28;20227;-83
2022/10/31 13:30:41;;;;;;;17.35;7.00;;;;;;;17.83;47.39;100550.16;10452024;28;20261;-83
2022/10/31 13:36:41;;;;;;;14.05;7.18;;;;;;;18.06;46.77;100555.84;10447982;28;20220;-82
2022/10/31 13:42:21;;;;;;;14.13;6.70;;;;;;;17.98;47.10;100554.91;10432141;28;20208;-82
2022/10/31 13:47:55;;;;;;;13.55;6.95;;;;;;;18.13;47.14;100533.97;10437945;28;20489;-82
2022/10/31 13:53:22;;;;;;;14.10;6.32;;;;;;;17.86;48.10;100523.72;10463076;28;20544;-83
2022/10/31 13:59:14;;;;;;;22.20;11.73;;;;;;;18.15;47.82;100514.44;10444046;28;20239;-81
2022/10/31 14:04:39;;;;;;;30.35;13.60;;;;;;;17.96;49.98;100508.84;10448274;28;20227;-82
2022/10/31 14:10:20;;;;;;;28.17;14.35;;;;;;;17.93;50.73;100484.75;10444223;28;20196;-83
2022/10/31 14:16:03;;;;;;;26.08;15.35;;;;;;;18.07;50.78;100484.16;10415262;28;20224;-82
2022/10/31 14:21:25;;;;;;;22.77;13.43;;;;;;;17.69;52.27;100465.22;10422579;28;20604;-83
2022/10/31 14:27:26;;;;;;;25.27;13.00;;;;;;;18.01;51.31;100457.16;10418363;28;20224;-82
2022/10/31 14:33:17;;;;;;;18.00;10.02;;;;;;;18.42;48.40;100463.09;10412752;28;20253;-82
2022/10/31 14:39:01;;;;;;;11.13;5.43;;;;;;;17.55;45.83;100465.75;10451949;28;20211;-83
2022/10/31 14:44:32;;;;;;;13.02;5.95;;;;;;;17.86;44.75;100455.28;10462096;28;20595;-83
2022/10/31 14:50:21;;;;;;;10.95;5.68;;;;;;;17.22;45.19;100446.41;10431378;28;20200;-82
2022/10/31 14:55:47;;;;;;;15.93;6.00;;;;;;;18.24;43.99;100435.09;10437135;28;20230;-82
2022/10/31 15:01:36;;;;;;;14.77;4.97;;;;;;;18.06;44.01;100425.47;10443414;28;20204;-82
2022/10/31 15:07:13;;;;;;;10.20;5.70;;;;;;;17.66;45.10;100423.22;10450520;28;20212;-82
2022/10/31 15:12:38;;;;;;;8.68;5.47;;;;;;;17.76;45.62;100425.41;10441028;28;20250;-82
2022/10/31 15:18:01;;;;;;;14.85;6.80;;;;;;;17.86;45.70;100406.81;10425257;28;20216;-83
2022/10/31 15:23:28;;;;;;;14.43;6.47;;;;;;;17.77;46.49;100392.03;10460322;28;20203;-81
2022/10/31 15:29:04;;;;;;;12.43;5.47;;;;;;;17.71;45.94;100385.81;10448706;28;20281;-81
2022/10/31 15:34:37;;;;;;;11.68;6.65;;;;;;;17.57;46.49;100383.56;10461168;28;20204;-83
2022/10/31 15:40:07;;;;;;;13.07;5.88;;;;;;;17.46;46.90;100382.53;10440697;28;20204;-83
2022/10/31 15:45:30;;;;;;;10.98;5.43;;;;;;;17.22;47.71;100371.53;10416253;28;20202;-83
2022/10/31 15:50:56;;;;;;;16.00;5.95;;;;;;;17.11;47.07;100359.13;10424188;28;20469;-83
2022/10/31 15:56:28;;;;;;;14.02;5.30;;;;;;;16.89;47.72;100361.56;10437819;28;20216;-84
2022/10/31 16:02:02;;;;;;;11.65;5.38;;;;;;;16.89;48.65;100347.34;10484067;28;20214;-84
2022/10/31 16:07:28;;;;;;;13.93;5.70;;;;;;;17.15;47.56;100357.19;10464536;28;20221;-84
2022/10/31 16:12:51;;;;;;;7.80;5.07;;;;;;;16.80;47.58;100349.59;10438519;28;20191;-84
2022/10/31 16:18:13;;;;;;;8.93;5.30;;;;;;;16.62;47.03;100331.38;10440698;28;20223;-84
2022/10/31 16:23:37;;;;;;;14.60;5.85;;;;;;;16.81;47.80;100339.84;10449302;28;20208;-83
2022/10/31 16:28:59;;;;;;;7.70;4.60;;;;;;;16.69;47.74;100330.66;10437229;28;20261;-83
2022/10/31 16:34:22;;;;;;;14.48;5.38;;;;;;;16.50;47.89;100329.50;10444072;28;20597;-82
2022/10/31 16:39:44;;;;;;;11.13;5.55;;;;;;;16.38;48.40;100323.16;10438906;28;20262;-82
2022/10/31 16:45:07;;;;;;;12.90;5.45;;;;;;;16.65;47.67;100324.94;10452708;28;20534;-81
2022/10/31 16:50:30;;;;;;;14.38;5.90;;;;;;;16.23;48.68;100319.19;10462068;28;20295;-80
2022/10/31 16:55:57;;;;;;;12.65;5.45;;;;;;;16.53;47.40;100308.84;10437954;28;20638;-79
2022/10/31 17:01:19;;;;;;;9.13;5.57;;;;;;;16.30;48.04;100307.13;10429157;28;20191;-81
2022/10/31 17:06:41;;;;;;;12.68;5.95;;;;;;;16.16;47.73;100291.41;10437905;28;20289;-82
2022/10/31 17:12:05;;;;;;;11.23;5.90;;;;;;;16.20;48.36;100292.31;10430121;28;20254;-81
2022/10/31 17:17:27;;;;;;;13.98;6.25;;;;;;;16.20;47.95;100297.16;10408869;28;20260;-81
2022/10/31 17:22:49;;;;;;;9.60;5.18;;;;;;;16.01;47.64;100291.50;10433933;28;20549;-81
2022/10/31 17:28:12;;;;;;;13.15;5.97;;;;;;;16.03;47.44;100287.06;10432572;28;20309;-81
2022/10/31 17:33:34;;;;;;;13.90;5.65;;;;;;;15.76;48.06;100282.41;10436544;28;20656;-80
2022/10/31 17:38:56;;;;;;;11.15;4.55;;;;;;;15.98;45.95;100278.84;10462657;28;20557;-81
2022/10/31 17:44:19;;;;;;;9.65;5.88;;;;;;;15.91;45.30;100272.16;10447091;28;20292;-81
2022/10/31 17:49:41;;;;;;;12.10;5.38;;;;;;;15.92;44.19;100266.13;10446110;28;20227;-80
2022/10/31 17:55:04;;;;;;;11.30;5.10;;;;;;;15.43;42.67;100266.63;10447000;28;20305;-82
2022/10/31 18:00:27;;;;;;;7.03;3.38;;;;;;;15.23;43.92;100269.81;10446354;28;20235;-83
2022/10/31 18:05:56;;;;;;;8.27;4.10;;;;;;;15.81;41.10;100268.72;10454725;28;20265;-81
2022/10/31 18:11:19;;;;;;;7.47;3.10;;;;;;;15.88;40.15;100268.09;10437897;28;20656;-81
2022/10/31 18:16:42;;;;;;;6.80;2.30;;;;;;;16.01;39.26;100261.06;10473204;28;20254;-81
2022/10/31 18:22:04;;;;;;;10.02;3.20;;;;;;;16.16;39.90;100256.44;10414722;28;20239;-81
2022/10/31 18:27:26;;;;;;;8.05;2.97;;;;;;;16.00;39.58;100250.88;10438237;28;20247;-81
2022/10/31 18:32:51;;;;;;;9.95;3.83;;;;;;;16.01;39.51;100238.31;10435214;28;20289;-81
2022/10/31 18:38:13;;;;;;;7.82;3.17;;;;;;;15.86;40.09;100247.72;10485095;28;20570;-81
2022/10/31 18:43:35;;;;;;;5.50;3.08;;;;;;;15.76;39.64;100256.81;10423697;28;20236;-81
2022/10/31 18:48:58;;;;;;;8.90;4.00;;;;;;;16.30;40.35;100247.41;10446414;28;20219;-82
2022/10/31 18:54:20;;;;;;;7.00;3.58;;;;;;;15.10;41.72;100238.69;10472391;28;20245;-82
2022/10/31 18:59:42;;;;;;;11.23;3.25;;;;;;;15.15;41.19;100229.88;10448041;28;20600;-81
2022/10/31 19:05:05;;;;;;;10.63;3.13;;;;;;;15.24;41.24;100238.19;10450653;28;20684;-82
2022/10/31 19:10:27;;;;;;;7.70;2.80;;;;;;;15.31;41.20;100238.34;10439555;28;20277;-81
2022/10/31 19:15:49;;;;;;;10.88;2.35;;;;;;;15.67;40.54;100224.97;10451735;28;20301;-81
2022/10/31 19:21:16;;;;;;;7.88;3.50;;;;;;;15.41;40.75;100226.41;10465873;28;20563;-81
2022/10/31 19:26:38;;;;;;;7.38;2.97;;;;;;;15.93;40.21;100221.47;10431487;28;20247;-83
2022/10/31 19:32:00;;;;;;;7.28;2.60;;;;;;;15.45;41.07;100215.16;10433888;28;20227;-81
2022/10/31 19:37:23;;;;;;;8.35;3.00;;;;;;;15.97;40.02;100213.84;10441190;28;20243;-81
2022/10/31 19:42:45;;;;;;;8.38;2.42;;;;;;;15.58;40.99;100210.19;10460962;28;20235;-82
2022/10/31 19:48:07;;;;;;;4.05;2.30;;;;;;;15.63;42.63;100202.16;10469928;28;20277;-82
2022/10/31 19:53:30;;;;;;;6.38;3.10;;;;;;;15.94;40.99;100203.22;10432460;28;20316;-82
2022/10/31 19:58:52;;;;;;;10.32;2.92;;;;;;;15.88;40.84;100199.03;10450972;28;20305;-82
2022/10/31 20:04:14;;;;;;;10.45;2.97;;;;;;;15.26;42.80;100198.88;10442165;28;20397;-82
2022/10/31 20:09:36;;;;;;;10.70;3.35;;;;;;;15.15;42.74;100197.81;10430781;28;20266;-81
2022/10/31 20:14:58;;;;;;;9.80;3.13;;;;;;;14.90;43.21;100187.91;10409054;28;21033;-81
2022/10/31 20:20:20;;;;;;;6.75;3.58;;;;;;;15.28;42.78;100182.31;10446761;28;20277;-81
2022/10/31 20:25:49;;;;;;;10.77;3.20;;;;;;;15.30;43.05;100179.91;10444537;28;20247;-82
2022/10/31 20:31:16;;;;;;;10.63;3.05;;;;;;;15.15;43.79;100169.44;10447222;28;20235;-82
2022/10/31 20:36:39;;;;;;;8.52;2.80;;;;;;;15.33;42.70;100173.50;10424810;28;20664;-82
2022/10/31 20:42:03;;;;;;;9.15;3.75;;;;;;;15.39;42.75;100172.00;10440604;28;20238;-82
2022/10/31 20:47:25;;;;;;;6.00;2.92;;;;;;;15.41;42.85;100163.94;10425620;28;20219;-82
2022/10/31 20:52:47;;;;;;;8.63;2.65;;;;;;;15.50;43.62;100153.19;10443204;28;20224;-82
2022/10/31 20:58:09;;;;;;;7.78;2.95;;;;;;;15.60;42.52;100148.13;10453524;28;20255;-82
2022/10/31 21:03:35;;;;;;;7.13;2.95;;;;;;;15.42;43.89;100137.19;10439405;28;20309;-82
2022/10/31 21:08:57;;;;;;;8.52;2.42;;;;;;;15.02;43.81;100133.84;10425356;28;20609;-83
2022/10/31 21:14:22;;;;;;;9.73;3.30;;;;;;;14.79;44.70;100148.75;10431176;28;20737;-82
2022/10/31 21:19:44;;;;;;;7.78;2.83;;;;;;;15.28;43.55;100141.72;10423401;28;20258;-80
2022/10/31 21:25:06;;;;;;;9.02;3.88;;;;;;;15.26;43.69;100138.44;10457319;28;20232;-82
2022/10/31 21:30:28;;;;;;;10.25;3.10;;;;;;;15.43;43.99;100127.47;10446760;28;20228;-82
2022/10/31 21:35:51;;;;;;;5.40;2.80;;;;;;;15.12;43.69;100122.72;10420613;28;20203;-82
2022/10/31 21:41:14;;;;;;;6.00;2.70;;;;;;;15.67;42.75;100120.66;10433166;28;20239;-82
2022/10/31 21:46:37;;;;;;;7.75;2.90;;;;;;;15.40;43.06;100114.00;10451503;28;20231;-83
2022/10/31 21:51:59;;;;;;;8.68;3.10;;;;;;;15.36;43.21;100098.94;10446846;28;20231;-81
2022/10/31 21:57:22;;;;;;;11.15;2.60;;;;;;;15.12;43.98;100096.34;10440118;28;20256;-81
2022/10/31 22:02:44;;;;;;;5.05;2.80;;;;;;;14.57;45.45;100083.34;10456518;28;20230;-81
2022/10/31 22:08:06;;;;;;;7.65;3.05;;;;;;;14.84;45.15;100081.56;10462270;28;20545;-82
2022/10/31 22:13:30;;;;;;;9.38;3.13;;;;;;;14.50;45.65;100068.97;10435824;28;20839;-81
2022/10/31 22:18:54;;;;;;;7.40;3.08;;;;;;;14.86;44.73;100056.44;10435386;28;20246;-80
2022/10/31 22:24:17;;;;;;;7.80;2.78;;;;;;;14.87;44.70;100052.41;10470666;28;20242;-80
2022/10/31 22:29:39;;;;;;;9.60;2.58;;;;;;;15.01;45.01;100052.72;10437763;28;20336;-80
2022/10/31 22:35:01;;;;;;;9.55;2.78;;;;;;;15.11;44.22;100047.28;10470741;28;20293;-80
2022/10/31 22:40:23;;;;;;;6.85;2.40;;;;;;;15.10;44.06;100039.16;10445045;28;20243;-81
2022/10/31 22:45:53;;;;;;;8.35;2.85;;;;;;;15.22;43.31;100036.16;10438958;28;20838;-81
2022/10/31 22:51:30;;;;;;;6.45;2.10;;;;;;;15.58;42.36;100025.53;10449972;28;20231;-81
2022/10/31 22:56:53;;;;;;;6.10;2.38;;;;;;;14.90;43.90;100034.66;10432123;28;20361;-81
2022/10/31 23:02:15;;;;;;;5.45;2.45;;;;;;;15.28;42.84;100023.28;10475866;28;20624;-81
2022/10/31 23:07:38;;;;;;;5.53;2.20;;;;;;;15.45;42.98;100011.47;10439319;28;20570;-81
2022/10/31 23:18:41;;;;;;;8.57;3.08;;;;;;;15.10;43.84;100017.28;10464858;28;20292;-81
2022/10/31 23:24:03;;;;;;;6.03;2.10;;;;;;;15.61;42.80;100017.06;10447475;28;20200;-80
2022/10/31 23:29:25;;;;;;;8.75;2.35;;;;;;;15.48;43.15;100005.03;10446449;28;20282;-80
2022/10/31 23:34:49;;;;;;;8.23;3.10;;;;;;;15.50;42.99;100005.50;10451454;28;20207;-80
2022/10/31 23:40:11;;;;;;;9.25;2.95;;;;;;;15.26;43.87;100000.13;10468721;28;20254;-81
2022/10/31 23:45:33;;;;;;;9.15;2.60;;;;;;;15.26;43.79;100008.66;10463123;28;20227;-81
2022/10/31 23:50:55;;;;;;;10.00;3.10;;;;;;;15.24;43.37;99996.03;10457261;28;20536;-81
2022/10/31 23:56:18;;;;;;;7.97;2.80;;;;;;;15.26;43.91;100005.81;10453788;28;20211;-80
